Time;durP1;ratioP1;P1;durP2;ratioP2;P2;SDS_P1;SDS_P2;PMS_P1;PMS_P2;Temp;Humidity;BMP_temperature;BMP_pressure;BME280_temperature;BME280_humidity;BME280_pressure;Samples;Min_cycle;Max_cycle;Signal;HPM_P1;HPM_P2
2022/03/24 00:00:19;;;;;;;51.70;27.50;;;;;;;7.84;83.94;103013.91;5064538;28;20032;-71
2022/03/24 00:02:45;;;;;;;52.72;28.58;;;;;;;7.78;84.65;103014.78;5067175;28;20028;-71
2022/03/24 00:05:12;;;;;;;53.38;27.70;;;;;;;7.68;84.50;103010.34;5044523;28;20066;-71
2022/03/24 00:07:38;;;;;;;52.70;26.88;;;;;;;7.59;85.38;103016.47;5066801;28;20029;-71
2022/03/24 00:10:05;;;;;;;52.92;29.00;;;;;;;7.49;85.44;103014.69;5061014;28;20102;-70
2022/03/24 00:12:30;;;;;;;51.10;27.50;;;;;;;7.43;86.13;103018.22;5068845;28;20028;-71
2022/03/24 00:14:56;;;;;;;49.72;28.70;;;;;;;7.40;86.51;103012.91;5047582;28;20495;-71
2022/03/24 00:17:22;;;;;;;52.40;29.30;;;;;;;7.36;87.05;103012.00;5065535;28;20380;-72
2022/03/24 00:19:47;;;;;;;53.10;28.55;;;;;;;7.34;87.73;103008.50;5066843;28;20039;-71
2022/03/24 00:22:13;;;;;;;56.45;29.65;;;;;;;7.35;87.94;103010.28;5064850;28;20032;-72
2022/03/24 00:24:39;;;;;;;61.85;30.90;;;;;;;7.38;88.28;103007.63;5047488;28;20028;-71
2022/03/24 00:27:05;;;;;;;54.13;30.35;;;;;;;7.45;88.53;103007.66;5047024;28;20035;-71
2022/03/24 00:29:31;;;;;;;66.60;30.45;;;;;;;7.51;89.39;103005.91;5046779;28;20033;-71
2022/03/24 00:31:56;;;;;;;63.17;31.08;;;;;;;7.53;87.89;103011.19;5046645;28;20036;-72
2022/03/24 00:34:21;;;;;;;55.53;31.00;;;;;;;7.52;87.92;103012.97;5068970;28;20028;-71
2022/03/24 00:36:47;;;;;;;56.38;29.60;;;;;;;7.55;88.58;103012.09;5065498;28;20028;-71
2022/03/24 00:39:12;;;;;;;56.53;30.15;;;;;;;7.57;88.82;103012.09;5066263;28;20043;-71
2022/03/24 00:41:37;;;;;;;58.25;28.88;;;;;;;7.57;88.55;103012.97;5066808;28;20111;-71
2022/03/24 00:44:03;;;;;;;54.75;29.00;;;;;;;7.52;88.20;102999.78;5064801;28;20412;-72
2022/03/24 00:46:31;;;;;;;53.58;29.88;;;;;;;7.54;88.53;103013.84;5064898;28;20071;-71
2022/03/24 00:48:57;;;;;;;57.70;30.40;;;;;;;7.59;88.40;103016.47;5066672;28;20025;-71
2022/03/24 00:51:22;;;;;;;54.60;30.23;;;;;;;7.61;88.51;103011.22;5064834;28;20043;-71
2022/03/24 00:53:48;;;;;;;56.45;31.17;;;;;;;7.61;89.06;103014.75;5065193;28;20106;-71
2022/03/24 00:56:14;;;;;;;58.15;29.23;;;;;;;7.61;88.93;103009.47;5046588;28;20051;-71
2022/03/24 00:58:39;;;;;;;58.42;31.00;;;;;;;7.59;88.98;103008.56;5046750;28;20032;-71
2022/03/24 01:01:09;;;;;;;60.70;30.65;;;;;;;7.57;89.06;103012.09;5045380;28;20040;-72
2022/03/24 01:03:35;;;;;;;58.20;31.08;;;;;;;7.47;88.56;103008.56;5047759;28;20123;-72
2022/03/24 01:06:01;;;;;;;54.67;30.05;;;;;;;7.40;88.17;103001.50;5065186;28;20028;-71
2022/03/24 01:08:26;;;;;;;60.03;30.00;;;;;;;7.29;87.58;102999.72;5031097;28;20399;-71
2022/03/24 01:10:51;;;;;;;61.72;32.15;;;;;;;7.20;89.10;102994.41;5065666;28;20510;-71
2022/03/24 01:13:21;;;;;;;62.17;31.85;;;;;;;7.20;89.33;102991.78;5046513;28;20032;-72
2022/03/24 01:15:47;;;;;;;61.15;30.95;;;;;;;7.14;88.61;103002.28;5064687;28;20027;-71
2022/03/24 01:18:14;;;;;;;57.28;30.70;;;;;;;7.09;88.74;102996.13;5044255;28;20407;-72
2022/03/24 01:20:41;;;;;;;54.78;29.42;;;;;;;7.04;86.93;103001.34;5064512;28;20020;-71
2022/03/24 01:23:07;;;;;;;59.85;30.27;;;;;;;6.91;87.33;102994.28;5060466;28;20085;-71
2022/03/24 01:25:32;;;;;;;55.42;29.33;;;;;;;6.79;88.70;102987.16;5065537;28;20036;-71
2022/03/24 01:27:58;;;;;;;55.08;29.80;;;;;;;6.71;90.18;102989.75;5064242;28;20289;-72
2022/03/24 01:30:23;;;;;;;56.08;29.60;;;;;;;6.63;91.07;102986.22;5062784;28;20040;-71
2022/03/24 01:32:48;;;;;;;56.67;29.45;;;;;;;6.63;90.94;102983.56;5063248;28;20040;-72
2022/03/24 01:35:15;;;;;;;63.05;31.63;;;;;;;6.61;91.42;102986.19;5064475;28;20391;-72
2022/03/24 01:37:40;;;;;;;63.40;33.13;;;;;;;6.68;92.08;102973.94;5064059;28;20029;-72
2022/03/24 01:40:09;;;;;;;59.75;31.23;;;;;;;6.72;93.21;102981.00;5042643;28;20509;-71
2022/03/24 01:42:36;;;;;;;62.25;30.20;;;;;;;6.71;90.38;102980.13;5063705;28;20037;-71
2022/03/24 01:45:02;;;;;;;61.78;32.15;;;;;;;6.57;90.00;102979.13;5041933;28;20140;-72
2022/03/24 01:47:28;;;;;;;57.83;30.55;;;;;;;6.40;90.73;102977.25;5063522;28;20035;-71
2022/03/24 01:49:58;;;;;;;57.92;29.02;;;;;;;6.33;91.96;102979.84;5063578;28;20020;-72
2022/03/24 01:52:25;;;;;;;67.97;31.40;;;;;;;6.26;92.75;102976.28;5067086;28;20032;-72
2022/03/24 01:54:54;;;;;;;63.38;33.33;;;;;;;6.23;93.54;102971.03;5062929;28;20032;-71
2022/03/24 01:57:21;;;;;;;57.22;30.25;;;;;;;6.23;93.55;102961.38;5046022;28;20031;-71
2022/03/24 01:59:48;;;;;;;59.85;31.50;;;;;;;6.26;93.31;102971.03;5046816;28;20036;-72
2022/03/24 02:02:14;;;;;;;58.83;28.73;;;;;;;6.23;91.45;102964.00;5040658;28;20036;-71
2022/03/24 02:04:40;;;;;;;60.22;29.58;;;;;;;6.12;91.80;102967.41;5063399;28;20044;-71
2022/03/24 02:07:07;;;;;;;54.47;29.67;;;;;;;6.05;92.96;102954.22;5064503;28;20031;-72
2022/03/24 02:09:33;;;;;;;61.90;30.27;;;;;;;6.01;93.19;102956.78;5043088;28;20123;-71
2022/03/24 02:12:00;;;;;;;56.90;28.10;;;;;;;5.94;93.31;102963.72;5062945;28;20036;-71
2022/03/24 02:14:28;;;;;;;53.03;28.45;;;;;;;5.87;93.19;102969.78;5063352;28;20059;-72
2022/03/24 02:16:53;;;;;;;55.65;28.73;;;;;;;5.83;93.88;102968.00;5045812;28;20488;-72
2022/03/24 02:19:21;;;;;;;65.03;32.03;;;;;;;5.88;94.66;102966.28;5061956;28;20032;-72
2022/03/24 02:21:48;;;;;;;56.33;29.70;;;;;;;5.98;95.40;102965.53;5057809;28;20028;-72
2022/03/24 02:24:15;;;;;;;54.92;28.55;;;;;;;5.96;93.31;102955.84;5045093;28;20100;-72
2022/03/24 02:26:42;;;;;;;62.38;30.15;;;;;;;5.85;92.68;102955.75;5041198;28;20071;-71
2022/03/24 02:29:10;;;;;;;62.72;29.90;;;;;;;5.77;93.48;102953.06;5045499;28;21157;-73
2022/03/24 02:31:50;;;;;;;62.35;30.85;;;;;;;5.67;94.74;102954.72;5067149;28;20085;-71
2022/03/24 02:37:05;;;;;;;67.88;33.00;;;;;;;5.67;95.93;102962.59;5062825;28;20059;-71
2022/03/24 02:39:30;;;;;;;63.47;33.10;;;;;;;5.73;97.13;102967.06;5064229;28;20024;-72
2022/03/24 02:41:57;;;;;;;74.57;35.97;;;;;;;5.83;98.37;102960.13;5062551;28;20040;-72
2022/03/24 02:44:25;;;;;;;66.38;31.80;;;;;;;5.87;97.21;102957.53;5062206;28;20048;-72
2022/03/24 02:46:53;;;;;;;59.95;32.13;;;;;;;5.83;94.74;102958.38;5063770;28;21875;-71
2022/03/24 02:49:23;;;;;;;61.10;30.83;;;;;;;5.76;93.17;102967.06;5064482;28;20025;-72
2022/03/24 02:51:50;;;;;;;60.22;31.35;;;;;;;5.65;93.82;102958.19;5062272;28;20442;-72
2022/03/24 02:54:16;;;;;;;62.22;30.58;;;;;;;5.57;94.60;102955.50;5062471;28;20028;-72
2022/03/24 02:56:42;;;;;;;62.95;31.85;;;;;;;5.50;95.90;102969.41;5066412;28;20111;-71
2022/03/24 02:59:08;;;;;;;65.25;32.95;;;;;;;5.45;95.88;102958.88;5062822;28;20120;-71
2022/03/24 03:01:34;;;;;;;69.30;33.63;;;;;;;5.47;96.62;102953.63;5038252;28;20036;-72
2022/03/24 03:04:00;;;;;;;60.05;30.55;;;;;;;5.49;96.91;102965.94;5038128;28;20544;-70
2022/03/24 03:06:26;;;;;;;61.08;30.63;;;;;;;5.46;95.55;102955.41;5040655;28;20041;-72
2022/03/24 03:08:52;;;;;;;59.03;31.88;;;;;;;5.43;96.28;102959.72;5024532;28;20035;-72
2022/03/24 03:11:20;;;;;;;60.78;30.98;;;;;;;5.45;96.02;102960.59;5066426;28;20032;-72
2022/03/24 03:13:47;;;;;;;60.08;31.40;;;;;;;5.42;95.67;102956.19;5025212;28;20027;-72
2022/03/24 03:16:12;;;;;;;60.15;32.03;;;;;;;5.39;96.25;102957.06;5062317;28;20044;-71
2022/03/24 03:18:41;;;;;;;68.95;32.40;;;;;;;5.46;97.73;102955.41;5041557;28;20033;-71
2022/03/24 03:21:06;;;;;;;64.25;31.80;;;;;;;5.54;97.36;102952.84;5041048;28;20032;-72
2022/03/24 03:23:31;;;;;;;64.00;31.88;;;;;;;5.53;95.75;102964.22;5062462;28;20028;-72
2022/03/24 03:25:57;;;;;;;65.72;32.92;;;;;;;5.47;94.34;102957.13;5029231;28;20111;-71
2022/03/24 03:28:22;;;;;;;66.70;32.47;;;;;;;5.43;94.79;102951.84;5062923;28;20032;-72
2022/03/24 03:30:48;;;;;;;65.43;30.85;;;;;;;5.34;94.56;102957.88;5028382;28;20115;-72
2022/03/24 03:33:13;;;;;;;63.50;31.02;;;;;;;5.23;95.04;102955.13;5028254;28;20067;-72
2022/03/24 03:35:39;;;;;;;63.00;30.65;;;;;;;5.22;96.80;102948.13;5042423;28;20170;-72
2022/03/24 03:38:04;;;;;;;64.10;31.17;;;;;;;5.18;96.75;102959.44;5024937;28;20036;-71
2022/03/24 03:40:30;;;;;;;67.25;32.60;;;;;;;5.13;98.21;102953.25;5062299;28;20043;-73
2022/03/24 03:42:56;;;;;;;68.45;33.47;;;;;;;5.12;99.22;102956.75;5060755;28;20047;-72
2022/03/24 03:45:21;;;;;;;63.78;30.63;;;;;;;5.18;98.84;102955.09;5062274;28;21801;-72
2022/03/24 03:47:47;;;;;;;62.72;30.98;;;;;;;5.12;97.49;102957.63;5062681;28;20024;-72
2022/03/24 03:50:12;;;;;;;58.45;30.50;;;;;;;5.08;97.51;102961.09;5064797;28;20055;-72
2022/03/24 03:52:37;;;;;;;62.80;31.13;;;;;;;5.03;98.29;102952.28;5062572;28;20044;-72
2022/03/24 03:55:04;;;;;;;62.55;30.98;;;;;;;5.02;99.50;102943.50;5045039;28;20040;-73
2022/03/24 03:57:29;;;;;;;63.20;32.88;;;;;;;5.04;99.34;102949.66;5045941;28;20460;-72
2022/03/24 03:59:55;;;;;;;66.95;33.63;;;;;;;5.01;99.90;102952.25;5037275;28;20107;-73
2022/03/24 04:02:20;;;;;;;70.68;33.20;;;;;;;5.01;100.00;102954.88;5061753;28;20024;-71
2022/03/24 04:04:46;;;;;;;65.65;32.67;;;;;;;5.01;100.00;102940.84;5064297;28;20040;-72
2022/03/24 04:07:11;;;;;;;64.88;33.35;;;;;;;5.02;100.00;102943.50;5062483;28;20048;-72
2022/03/24 04:09:36;;;;;;;69.45;33.85;;;;;;;5.07;100.00;102946.19;5066090;28;20013;-73
2022/03/24 04:12:02;;;;;;;61.65;31.65;;;;;;;5.07;100.00;102952.31;5066244;28;20047;-72
2022/03/24 04:14:28;;;;;;;65.35;32.28;;;;;;;5.04;100.00;102946.16;5047595;28;20036;-73
2022/03/24 04:16:57;;;;;;;63.28;32.53;;;;;;;5.03;99.25;102952.28;5065594;28;20032;-72
2022/03/24 04:19:24;;;;;;;66.15;31.92;;;;;;;5.03;99.61;102952.28;5046751;28;20518;-72
2022/03/24 04:21:49;;;;;;;63.92;30.98;;;;;;;5.01;99.36;102946.09;5065117;28;20044;-71
2022/03/24 04:24:14;;;;;;;59.85;30.63;;;;;;;4.98;98.87;102953.97;5044143;28;20042;-71
2022/03/24 04:26:40;;;;;;;60.83;30.92;;;;;;;4.95;98.95;102948.66;5067589;28;20055;-73
2022/03/24 04:29:05;;;;;;;66.78;30.33;;;;;;;4.90;98.83;102952.09;5065718;28;20404;-73
2022/03/24 04:31:31;;;;;;;62.92;31.35;;;;;;;4.86;99.40;102957.28;5043777;28;20029;-72
2022/03/24 04:33:57;;;;;;;65.70;31.45;;;;;;;4.83;100.00;102957.25;5047170;28;20044;-73
2022/03/24 04:36:22;;;;;;;61.20;31.38;;;;;;;4.83;100.00;102957.25;5048807;28;20123;-73
2022/03/24 04:38:48;;;;;;;58.13;30.33;;;;;;;4.78;99.94;102954.56;5043694;28;20067;-73
2022/03/24 04:41:14;;;;;;;62.53;30.60;;;;;;;4.73;100.00;102951.91;5047054;28;20376;-72
2022/03/24 04:43:39;;;;;;;61.88;30.83;;;;;;;4.70;99.83;102951.84;5065328;28;20135;-72
2022/03/24 04:46:05;;;;;;;61.80;31.83;;;;;;;4.65;100.00;102957.91;5064750;28;20115;-73
2022/03/24 04:48:35;;;;;;;61.30;31.17;;;;;;;4.63;100.00;102956.97;5047433;28;20025;-72
2022/03/24 04:51:03;;;;;;;66.75;31.95;;;;;;;4.64;100.00;102958.75;5066758;28;20367;-72
2022/03/24 04:53:29;;;;;;;62.70;31.23;;;;;;;4.61;100.00;102954.34;5064572;28;20075;-72
2022/03/24 04:55:54;;;;;;;63.33;31.60;;;;;;;4.59;100.00;102956.94;5064036;28;20062;-73
2022/03/24 04:58:20;;;;;;;69.03;32.13;;;;;;;4.65;100.00;102957.91;5063791;28;20028;-73
2022/03/24 05:00:45;;;;;;;69.03;32.55;;;;;;;4.69;100.00;102967.56;5064817;28;21150;-73
2022/03/24 05:03:10;;;;;;;64.88;32.33;;;;;;;4.71;100.00;102958.84;5064792;28;20044;-72
2022/03/24 05:05:36;;;;;;;60.08;31.08;;;;;;;4.71;100.00;102965.84;5047045;28;20111;-72
2022/03/24 05:08:01;;;;;;;60.22;31.35;;;;;;;4.71;100.00;102964.09;5043777;28;20020;-72
2022/03/24 05:10:27;;;;;;;70.00;32.53;;;;;;;4.69;100.00;102963.22;5064201;28;20056;-73
2022/03/24 05:12:52;;;;;;;63.20;31.48;;;;;;;4.67;100.00;102970.19;5064372;28;20039;-73
2022/03/24 05:15:18;;;;;;;72.30;33.28;;;;;;;4.66;100.00;102967.53;5045117;28;20507;-72
2022/03/24 05:17:43;;;;;;;70.68;34.50;;;;;;;4.68;100.00;102964.06;5063931;28;20413;-72
2022/03/24 05:20:09;;;;;;;70.47;32.63;;;;;;;4.73;100.00;102965.03;5064579;28;20024;-74
2022/03/24 05:22:36;;;;;;;74.63;33.60;;;;;;;4.77;100.00;102965.94;5064855;28;20039;-72
2022/03/24 05:25:03;;;;;;;66.97;32.17;;;;;;;4.76;100.00;102958.94;5063066;28;20028;-71
2022/03/24 05:27:28;;;;;;;66.90;33.38;;;;;;;4.73;100.00;102962.41;5046235;28;20035;-73
2022/03/24 05:29:54;;;;;;;62.40;31.50;;;;;;;4.75;100.00;102960.66;5046530;28;20028;-73
2022/03/24 05:32:19;;;;;;;69.03;33.13;;;;;;;4.82;100.00;102966.00;5064337;28;20028;-72
2022/03/24 05:34:45;;;;;;;69.47;33.10;;;;;;;4.83;100.00;102971.25;5063682;28;20028;-73
2022/03/24 05:37:11;;;;;;;69.63;33.20;;;;;;;4.81;100.00;102970.38;5049103;28;20032;-73
2022/03/24 05:39:37;;;;;;;68.65;32.92;;;;;;;4.85;100.00;102980.03;5046128;28;20044;-73
2022/03/24 05:42:02;;;;;;;70.68;34.67;;;;;;;4.95;100.00;102981.06;5063166;28;20047;-73
2022/03/24 05:44:29;;;;;;;71.30;33.78;;;;;;;5.04;100.00;102980.31;5043152;28;20048;-74
2022/03/24 05:46:55;;;;;;;71.43;34.55;;;;;;;5.05;100.00;102982.03;5064679;28;20037;-73
2022/03/24 05:49:21;;;;;;;64.53;32.80;;;;;;;5.13;100.00;102988.28;5063453;28;20024;-73
2022/03/24 05:51:47;;;;;;;66.70;32.25;;;;;;;5.20;100.00;102982.22;5045680;28;20117;-73
2022/03/24 05:54:15;;;;;;;66.97;32.50;;;;;;;5.23;100.00;102998.03;5048122;28;20047;-74
2022/03/24 05:56:41;;;;;;;67.57;32.75;;;;;;;5.27;100.00;102992.81;5063717;28;20070;-73
2022/03/24 05:59:07;;;;;;;65.93;32.35;;;;;;;5.27;100.00;102979.69;5061893;28;20024;-73
2022/03/24 06:01:33;;;;;;;58.05;29.50;;;;;;;5.28;100.00;102994.59;5044990;28;21778;-73
2022/03/24 06:04:00;;;;;;;60.83;31.38;;;;;;;5.28;99.71;102989.31;5063539;28;20021;-73
2022/03/24 06:06:26;;;;;;;57.35;29.63;;;;;;;5.32;99.93;102984.16;5044966;28;20033;-73
2022/03/24 06:08:53;;;;;;;61.42;31.88;;;;;;;5.33;98.52;103001.69;5062977;28;20036;-73
2022/03/24 06:11:19;;;;;;;61.28;31.55;;;;;;;5.29;98.19;102984.09;5064349;28;20075;-72
2022/03/24 06:13:46;;;;;;;60.45;30.50;;;;;;;5.28;98.20;102984.97;5048453;28;20025;-73
2022/03/24 06:16:13;;;;;;;58.58;30.27;;;;;;;5.35;97.69;102986.78;5042196;28;20369;-73
2022/03/24 06:18:39;;;;;;;61.92;31.50;;;;;;;5.40;97.96;102997.38;5062615;28;20507;-72
2022/03/24 06:21:05;;;;;;;68.55;32.47;;;;;;;5.47;97.77;102993.06;5063502;28;20601;-73
2022/03/24 06:23:31;;;;;;;64.68;33.63;;;;;;;5.52;98.30;102988.72;5062706;28;20099;-73
2022/03/24 06:25:57;;;;;;;58.50;32.17;;;;;;;5.58;98.32;102987.03;5039337;28;20082;-73
2022/03/24 06:28:22;;;;;;;60.28;31.73;;;;;;;5.66;98.44;102991.50;5066701;28;20024;-73
2022/03/24 06:30:48;;;;;;;61.08;29.98;;;;;;;5.74;97.38;102990.72;5071915;28;20056;-73
2022/03/24 06:33:16;;;;;;;61.28;30.65;;;;;;;5.78;96.12;102990.75;5053285;28;20040;-72
2022/03/24 06:35:43;;;;;;;67.30;32.53;;;;;;;5.81;97.34;102983.78;5050186;28;20029;-73
2022/03/24 06:38:09;;;;;;;66.43;32.08;;;;;;;5.86;97.32;102981.19;5069868;28;20030;-73
2022/03/24 06:40:34;;;;;;;63.75;33.15;;;;;;;5.93;97.88;102977.75;5071534;28;20040;-73
2022/03/24 06:42:59;;;;;;;64.65;31.42;;;;;;;6.00;97.67;102976.97;5071642;28;20039;-72
2022/03/24 06:45:25;;;;;;;64.97;32.22;;;;;;;6.07;97.44;102991.94;5059255;28;20075;-73
2022/03/24 06:47:50;;;;;;;61.33;30.63;;;;;;;6.14;97.84;102991.97;5051644;28;20545;-72
2022/03/24 06:50:16;;;;;;;67.82;34.20;;;;;;;6.23;97.22;102987.69;5051796;28;20070;-72
2022/03/24 06:52:43;;;;;;;62.45;33.15;;;;;;;6.31;97.19;102993.00;5052773;28;20063;-73
2022/03/24 06:55:09;;;;;;;66.35;33.42;;;;;;;6.50;97.87;102987.88;5059683;28;20024;-73
2022/03/24 06:57:37;;;;;;;61.47;32.70;;;;;;;6.66;96.89;102987.13;5071621;28;20140;-72
2022/03/24 07:00:07;;;;;;;61.20;33.50;;;;;;;6.80;96.01;102986.28;5051926;28;20511;-70
2022/03/24 07:02:32;;;;;;;58.92;32.70;;;;;;;6.93;95.62;102981.97;5071346;28;20032;-71
2022/03/24 07:04:58;;;;;;;67.15;32.30;;;;;;;7.03;95.08;102989.03;5061401;28;20819;-73
2022/03/24 07:07:25;;;;;;;65.55;32.85;;;;;;;7.10;95.04;102995.22;5071232;28;20511;-73
2022/03/24 07:09:50;;;;;;;67.57;32.67;;;;;;;7.18;95.54;102993.50;5070271;28;20040;-74
2022/03/24 07:12:19;;;;;;;70.75;34.17;;;;;;;7.26;95.02;102993.53;5062464;28;20606;-73
2022/03/24 07:14:45;;;;;;;63.53;33.47;;;;;;;7.37;94.84;102989.19;5050055;28;20064;-73
2022/03/24 07:17:10;;;;;;;59.60;31.17;;;;;;;7.49;94.59;102989.22;5048042;28;20080;-73
2022/03/24 07:19:35;;;;;;;68.75;33.80;;;;;;;7.64;94.03;102996.28;5050261;28;20028;-73
2022/03/24 07:22:02;;;;;;;61.72;31.98;;;;;;;7.78;94.02;102991.03;5033857;28;20424;-74
2022/03/24 07:24:28;;;;;;;64.38;32.05;;;;;;;7.89;93.20;102998.97;5051239;28;20027;-72
2022/03/24 07:26:53;;;;;;;63.20;32.03;;;;;;;8.01;93.09;102991.06;5052936;28;20036;-73
2022/03/24 07:29:18;;;;;;;64.97;31.50;;;;;;;8.11;92.45;103001.63;5053155;28;20060;-72
2022/03/24 07:31:44;;;;;;;58.65;30.70;;;;;;;8.23;92.21;102998.09;5070919;28;20029;-74
2022/03/24 07:34:10;;;;;;;56.63;30.65;;;;;;;8.44;92.14;103000.72;5051739;28;20158;-72
2022/03/24 07:36:35;;;;;;;61.67;31.20;;;;;;;8.63;90.80;102995.44;5062126;28;20040;-72
2022/03/24 07:39:01;;;;;;;57.55;31.30;;;;;;;8.76;90.67;102999.81;5052570;28;20392;-72
2022/03/24 07:41:26;;;;;;;57.13;31.05;;;;;;;8.91;89.92;102996.25;5055204;28;20021;-74
2022/03/24 07:43:52;;;;;;;53.15;28.92;;;;;;;9.01;89.62;103003.28;5068030;28;20571;-73
2022/03/24 07:46:18;;;;;;;49.55;28.38;;;;;;;9.14;89.17;103005.84;5075111;28;20113;-74
2022/03/24 07:48:48;;;;;;;58.80;28.25;;;;;;;9.25;88.54;103011.13;5059704;28;20120;-74
2022/03/24 07:51:15;;;;;;;47.13;27.67;;;;;;;9.40;87.48;103011.03;5045565;28;20144;-73
2022/03/24 07:53:53;;;;;;;51.20;27.70;;;;;;;9.54;85.20;103013.63;5054949;28;20096;-73
2022/03/24 07:56:23;;;;;;;61.53;29.42;;;;;;;9.68;84.36;103019.69;5056888;28;20105;-73
2022/03/24 07:58:49;;;;;;;47.88;27.10;;;;;;;9.82;82.33;103019.63;5063271;28;20127;-73
2022/03/24 08:01:14;;;;;;;48.55;27.98;;;;;;;9.98;81.24;103016.84;5073472;28;20426;-73
2022/03/24 08:03:39;;;;;;;51.38;29.42;;;;;;;10.05;81.92;103023.88;5069914;28;20036;-74
2022/03/24 08:06:05;;;;;;;52.63;27.90;;;;;;;10.13;81.76;103019.38;5074972;28;20033;-73
2022/03/24 08:08:30;;;;;;;47.38;25.92;;;;;;;10.24;79.72;103015.75;5069732;28;20036;-73
2022/03/24 08:10:56;;;;;;;50.20;26.65;;;;;;;10.37;78.70;103017.47;5054964;28;20488;-74
2022/03/24 08:13:23;;;;;;;43.60;24.73;;;;;;;10.52;75.39;103023.50;5047513;28;20035;-73
2022/03/24 08:15:49;;;;;;;47.60;24.90;;;;;;;10.67;73.09;103026.00;5071455;28;20032;-73
2022/03/24 08:18:16;;;;;;;45.85;24.92;;;;;;;10.80;72.04;103034.69;5051995;28;20021;-72
2022/03/24 08:20:43;;;;;;;46.92;24.73;;;;;;;10.96;71.57;103027.47;5067466;28;20025;-73
2022/03/24 08:23:10;;;;;;;38.55;24.13;;;;;;;11.12;68.09;103030.81;5066025;28;20070;-73
2022/03/24 08:25:38;;;;;;;45.95;23.83;;;;;;;11.27;67.75;103027.97;5073734;28;20032;-73
2022/03/24 08:28:04;;;;;;;47.17;25.30;;;;;;;11.40;68.60;103035.78;5057124;28;20032;-74
2022/03/24 08:30:29;;;;;;;45.53;25.63;;;;;;;11.53;67.03;103034.69;5049835;28;20036;-73
2022/03/24 08:32:55;;;;;;;42.70;22.67;;;;;;;11.70;63.52;103037.13;5072663;28;20123;-74
2022/03/24 08:35:20;;;;;;;41.60;20.95;;;;;;;11.79;60.21;103038.75;5049247;28;20055;-73
2022/03/24 08:37:46;;;;;;;38.95;22.13;;;;;;;11.85;58.17;103043.97;5063686;28;20028;-72
2022/03/24 08:40:12;;;;;;;38.80;22.60;;;;;;;11.95;58.91;103035.00;5065641;28;20036;-74
2022/03/24 08:42:39;;;;;;;46.08;23.17;;;;;;;12.08;57.44;103040.13;5053631;28;20036;-72
2022/03/24 08:45:07;;;;;;;40.85;22.02;;;;;;;12.19;57.33;103040.84;5050510;28;20072;-73
2022/03/24 08:47:33;;;;;;;43.22;24.15;;;;;;;12.33;57.65;103043.28;5058768;28;20036;-72
2022/03/24 08:49:58;;;;;;;41.28;23.40;;;;;;;12.53;56.06;103044.69;5052768;28;20029;-73
2022/03/24 08:52:25;;;;;;;39.40;23.15;;;;;;;12.60;56.71;103036.59;5052683;28;20060;-73
2022/03/24 08:54:50;;;;;;;34.88;21.00;;;;;;;12.74;53.48;103036.34;5039239;28;20075;-73
2022/03/24 08:57:16;;;;;;;42.13;22.20;;;;;;;12.86;53.17;103045.84;5055606;28;20021;-72
2022/03/24 08:59:42;;;;;;;39.55;21.15;;;;;;;12.98;52.29;103043.88;5071021;28;20101;-72
2022/03/24 09:02:08;;;;;;;33.53;21.65;;;;;;;13.15;52.89;103048.88;5052860;28;20032;-73
2022/03/24 09:04:33;;;;;;;35.00;21.60;;;;;;;13.31;51.33;103052.06;5055707;28;20505;-72
2022/03/24 09:07:00;;;;;;;34.55;20.63;;;;;;;13.37;51.19;103047.53;5070480;28;20099;-72
2022/03/24 09:09:25;;;;;;;32.42;19.60;;;;;;;13.52;50.65;103053.44;5073495;28;20017;-74
2022/03/24 09:11:51;;;;;;;34.10;20.63;;;;;;;13.86;47.55;103050.91;5062137;28;20034;-73
2022/03/24 09:14:17;;;;;;;37.72;21.73;;;;;;;14.06;47.48;103042.41;5044369;28;20054;-73
2022/03/24 09:16:44;;;;;;;33.78;20.33;;;;;;;15.11;46.47;103046.81;5051178;28;20036;-73
2022/03/24 09:19:10;;;;;;;41.38;21.58;;;;;;;16.80;41.68;103049.47;5063216;28;20110;-73
2022/03/24 09:21:36;;;;;;;38.83;21.65;;;;;;;18.06;38.92;103045.63;5063049;28;20036;-73
2022/03/24 09:24:01;;;;;;;30.48;19.45;;;;;;;18.83;33.46;103048.53;5066373;28;20033;-74
2022/03/24 09:26:27;;;;;;;31.15;19.67;;;;;;;19.40;30.98;103046.88;5062215;28;20055;-73
2022/03/24 09:28:52;;;;;;;24.95;17.55;;;;;;;20.20;27.95;103051.09;5063927;28;20048;-74
2022/03/24 09:31:21;;;;;;;26.40;17.05;;;;;;;20.89;27.33;103062.78;5060804;28;20025;-73
2022/03/24 09:33:47;;;;;;;26.63;19.02;;;;;;;21.67;28.23;103054.06;5072948;28;20037;-73
2022/03/24 09:36:12;;;;;;;31.33;17.98;;;;;;;21.83;24.65;103050.50;5055075;28;20032;-72
2022/03/24 09:38:39;;;;;;;32.25;18.05;;;;;;;21.32;26.41;103062.28;5072916;28;20044;-73
2022/03/24 09:41:10;;;;;;;35.38;16.60;;;;;;;21.45;24.17;103049.88;5037077;28;20038;-74
2022/03/24 09:43:40;;;;;;;24.27;16.17;;;;;;;20.98;24.04;103055.19;5072998;28;20035;-73
2022/03/24 09:46:06;;;;;;;27.80;17.15;;;;;;;21.29;24.39;103054.38;5072686;28;20020;-73
2022/03/24 09:48:31;;;;;;;24.60;14.40;;;;;;;22.22;24.00;103047.28;5054188;28;20639;-74
2022/03/24 09:50:57;;;;;;;25.08;16.42;;;;;;;22.78;21.44;103041.28;5052078;28;20040;-74
2022/03/24 09:53:23;;;;;;;22.95;15.10;;;;;;;23.09;21.15;103044.75;5052924;28;20048;-73
2022/03/24 09:55:49;;;;;;;22.63;14.80;;;;;;;22.68;20.07;103048.22;5052617;28;20094;-74
2022/03/24 09:58:15;;;;;;;21.17;15.18;;;;;;;21.97;20.54;103042.50;5064686;28;20021;-73
2022/03/24 10:00:40;;;;;;;22.58;15.02;;;;;;;21.17;20.60;103049.69;5072617;28;20031;-73
2022/03/24 10:03:32;;;;;;;23.08;14.20;;;;;;;20.95;21.60;103046.31;5070106;28;20036;-73
2022/03/24 10:05:58;;;;;;;;;;;;;;;21.72;21.00;103043.03;5052851;28;20037;-73
2022/03/24 10:08:24;;;;;;;23.35;15.43;;;;;;;22.20;21.60;103045.63;5050994;28;20030;-73
2022/03/24 10:10:50;;;;;;;22.17;15.85;;;;;;;21.95;21.92;103041.69;5053017;28;20025;-73
2022/03/24 10:13:24;;;;;;;24.95;16.48;;;;;;;21.73;22.15;103037.53;5068770;28;20047;-73
2022/03/24 10:15:50;;;;;;;26.20;16.90;;;;;;;21.71;24.03;103046.69;5068259;28;20510;-73
2022/03/24 10:18:16;;;;;;;24.63;16.88;;;;;;;22.74;22.41;103039.72;5050718;28;20124;-72
2022/03/24 10:20:42;;;;;;;26.25;17.77;;;;;;;23.45;21.79;103040.66;5052408;28;20029;-73
2022/03/24 10:23:07;;;;;;;23.33;17.45;;;;;;;24.19;20.50;103045.75;5055047;28;20032;-72
2022/03/24 10:25:36;;;;;;;29.65;18.85;;;;;;;23.38;21.22;103044.75;5041693;28;20033;-72
2022/03/24 10:28:08;;;;;;;25.60;16.83;;;;;;;23.79;20.89;103045.72;5054490;28;20020;-73
2022/03/24 10:31:02;;;;;;;18.52;15.75;;;;;;;24.48;19.27;103043.75;5065031;28;20048;-73
2022/03/24 10:33:40;;;;;;;28.52;17.00;;;;;;;23.90;20.13;103045.84;5054737;28;20037;-73
2022/03/24 10:36:14;;;;;;;24.95;16.55;;;;;;;24.37;20.12;103043.63;5034231;28;20059;-72
2022/03/24 10:38:41;;;;;;;26.70;17.15;;;;;;;24.46;20.32;103042.13;5052261;28;20025;-74
2022/03/24 10:41:20;;;;;;;30.10;17.77;;;;;;;23.70;19.57;103042.63;5052191;28;20028;-73
2022/03/24 10:43:52;;;;;;;23.90;18.27;;;;;;;23.41;21.34;103044.53;5051662;28;20123;-72
2022/03/24 10:46:18;;;;;;;23.85;18.30;;;;;;;24.26;21.00;103041.66;5034201;28;20091;-74
2022/03/24 10:48:44;;;;;;;28.25;18.58;;;;;;;23.97;20.17;103040.94;5069332;28;20044;-73
2022/03/24 10:51:10;;;;;;;30.23;17.27;;;;;;;23.93;19.24;103048.41;5071176;28;20054;-74
2022/03/24 10:53:41;;;;;;;22.58;17.85;;;;;;;24.80;19.02;103040.66;5033882;28;20395;-73
2022/03/24 10:56:11;;;;;;;;;;;;;;;25.33;17.88;103047.72;5056352;28;20020;-73
2022/03/24 10:58:42;;;;;;;24.38;17.23;;;;;;;25.18;18.95;103044.31;5070219;28;19920;-73
2022/03/24 11:01:14;;;;;;;25.90;17.77;;;;;;;24.98;18.56;103046.59;5069864;28;20111;-73
2022/03/24 11:03:40;;;;;;;24.05;16.92;;;;;;;25.22;18.66;103043.09;5053090;28;20028;-73
2022/03/24 11:06:17;;;;;;;25.42;18.00;;;;;;;25.48;18.03;103041.19;5071870;28;20031;-73
2022/03/24 11:08:50;;;;;;;26.60;18.10;;;;;;;24.75;18.40;103033.84;5053505;28;20055;-73
2022/03/24 11:11:16;;;;;;;24.75;18.35;;;;;;;24.94;19.82;103039.66;5071195;28;20033;-74
2022/03/24 11:13:51;;;;;;;25.15;19.65;;;;;;;24.76;20.50;103035.53;5065984;28;20036;-73